KAXN/AXN METAR and TAF weather

Enter ICAO airport designator
Station Type Date Time Source
KAXN METAR 2018/04/27 00:53 UTC NOAA

KAXN 270053Z AUTO 35008KT 10SM CLR 12/M03 A2999 RMK AO2 SLP163 T01171028


Station Type Date Time Source
KAXN Decoded METAR 2018/04/27 00:53 UTC NOAA

CHANDLER FIELD, MN, United States (KAXN) 45-52N 095-24W 433M
Apr 26, 2018 - 08:53 PM EDT / 2018.04.27 0053 UTC
Wind: from the N (350 degrees) at 9 MPH (8 KT):0
Visibility: 10 mile(s):0
Sky conditions: clear
Temperature: 53.1 F (11.7 C)
Dew Point: 27.0 F (-2.8 C)
Relative Humidity: 36%
Pressure (altimeter): 29.99 in. Hg (1015 hPa)
ob: KAXN 270053Z AUTO 35008KT 10SM CLR 12/M03 A2999 RMK AO2 SLP163 T01171028
cycle: 1

Station Type Date Time Source
KAXN TAF 2018/04/26 18:22 UTC NOAA

TAF KAXN 261720Z 2618/2718 35016G26KT P6SM SKC
FM270100 30006KT P6SM SKC
FM270400 24005KT P6SM FEW250
FM270900 25010KT P6SM SCT100
FM271200 31015G21KT P6SM SKC


Example: see airport list